Time;durP1;ratioP1;P1;durP2;ratioP2;P2;SDS_P1;SDS_P2;PMS_P1;PMS_P2;Temp;Humidity;BMP_temperature;BMP_pressure;BME280_temperature;BME280_humidity;BME280_pressure;Samples;Min_cycle;Max_cycle;Signal;HPM_P1;HPM_P2
2021/09/09 00:01:10;;;;;;;5.50;4.10;;;;;;;23.89;60.73;101467.15;1743125;80;21279;-48
2021/09/09 00:03:36;;;;;;;5.67;4.00;;;;;;;23.91;60.69;101469.02;1749999;80;21076;-48
2021/09/09 00:06:02;;;;;;;5.92;4.28;;;;;;;23.91;60.62;101467.06;1748479;80;21065;-47
2021/09/09 00:08:29;;;;;;;6.53;4.58;;;;;;;23.91;60.56;101469.84;1744520;80;22019;-47
2021/09/09 00:10:55;;;;;;;5.90;4.37;;;;;;;23.88;60.50;101464.94;1744319;80;21163;-47
2021/09/09 00:13:21;;;;;;;5.87;4.03;;;;;;;23.88;60.43;101469.67;1747967;80;21306;-50
2021/09/09 00:15:48;;;;;;;7.55;4.70;;;;;;;23.85;60.37;101468.34;1746209;80;21447;-48
2021/09/09 00:18:14;;;;;;;6.20;4.50;;;;;;;23.82;60.35;101470.39;1751405;80;21144;-47
2021/09/09 00:20:40;;;;;;;7.22;4.50;;;;;;;23.79;60.34;101465.48;1748004;80;21109;-48
2021/09/09 00:23:06;;;;;;;6.95;4.45;;;;;;;23.77;60.31;101462.77;1745345;80;21044;-49
2021/09/09 00:25:32;;;;;;;6.28;4.20;;;;;;;23.74;60.31;101467.02;1743463;80;21956;-48
2021/09/09 00:27:58;;;;;;;6.08;3.80;;;;;;;23.73;60.29;101465.38;1743704;80;21094;-46
2021/09/09 00:30:25;;;;;;;6.15;3.72;;;;;;;23.74;60.37;101468.41;1744165;80;21594;-46
2021/09/09 00:32:51;;;;;;;5.78;3.72;;;;;;;23.75;60.45;101466.45;1744979;80;21031;-49
2021/09/09 00:35:17;;;;;;;6.47;4.55;;;;;;;23.75;60.52;101463.11;1748841;80;21708;-48
2021/09/09 00:37:43;;;;;;;5.67;3.67;;;;;;;23.75;60.58;101468.66;1747543;80;23149;-48
2021/09/09 00:40:10;;;;;;;6.80;3.80;;;;;;;23.75;60.54;101459.50;1750012;80;21054;-47
2021/09/09 00:42:37;;;;;;;5.65;3.83;;;;;;;23.77;60.49;101458.59;1745428;80;21018;-51
2021/09/09 00:45:04;;;;;;;5.92;3.77;;;;;;;23.75;60.43;101460.33;1735607;81;22589;-48
2021/09/09 00:47:30;;;;;;;7.28;3.72;;;;;;;23.74;60.36;101462.85;1724801;82;21048;-47
2021/09/09 00:49:57;;;;;;;5.67;3.87;;;;;;;23.73;60.28;101457.04;1733458;80;20998;-48
2021/09/09 00:52:23;;;;;;;5.53;3.67;;;;;;;23.71;60.23;101460.73;1733818;81;21690;-51
2021/09/09 00:54:49;;;;;;;5.92;3.87;;;;;;;23.68;60.21;101460.78;1730692;82;20914;-47
2021/09/09 00:57:20;;;;;;;6.83;4.17;;;;;;;23.66;60.17;101454.75;1732820;80;21093;-49
2021/09/09 00:59:45;;;;;;;5.87;3.47;;;;;;;23.62;60.17;101449.59;1730113;81;21089;-46
2021/09/09 01:02:11;;;;;;;4.53;3.40;;;;;;;23.60;60.13;101451.86;1731087;82;22495;-48
2021/09/09 01:04:37;;;;;;;5.60;3.30;;;;;;;23.61;60.12;101447.95;1730141;80;21116;-48
2021/09/09 01:07:04;;;;;;;4.90;3.37;;;;;;;23.62;60.19;101455.72;1736034;82;21009;-49
2021/09/09 01:09:30;;;;;;;6.03;3.47;;;;;;;23.63;60.26;101449.02;1734666;80;21085;-46
2021/09/09 01:11:56;;;;;;;5.87;3.20;;;;;;;23.63;60.34;101452.62;1705735;81;21418;-49
2021/09/09 01:14:23;;;;;;;6.92;3.37;;;;;;;23.64;60.36;101454.23;1733053;80;21173;-48
2021/09/09 01:16:49;;;;;;;5.55;3.27;;;;;;;23.65;60.34;101453.11;1735587;80;21079;-48
2021/09/09 01:19:16;;;;;;;5.05;3.17;;;;;;;23.65;60.30;101450.89;1738749;81;21034;-50
2021/09/09 01:21:42;;;;;;;6.80;3.95;;;;;;;23.65;60.20;101443.95;1730694;81;21105;-51
2021/09/09 01:24:16;;;;;;;5.35;4.05;;;;;;;23.64;60.13;101454.80;1734410;80;21081;-48
2021/09/09 01:26:59;;;;;;;6.20;3.95;;;;;;;23.63;60.06;101454.02;1730617;80;21709;-49
2021/09/09 01:29:30;;;;;;;5.12;3.70;;;;;;;23.61;60.01;101452.68;1724446;80;21081;-49
2021/09/09 01:31:56;;;;;;;6.10;3.65;;;;;;;23.59;59.95;101450.81;1725997;80;21059;-45
2021/09/09 01:34:23;;;;;;;4.50;3.27;;;;;;;23.54;59.89;101447.61;1728643;80;20950;-50
2021/09/09 01:36:51;;;;;;;4.85;3.30;;;;;;;23.52;59.88;101445.71;1732953;81;21112;-49
2021/09/09 01:39:17;;;;;;;6.40;3.58;;;;;;;23.51;59.87;101443.24;1736393;80;22152;-47
2021/09/09 01:41:43;;;;;;;4.55;3.20;;;;;;;23.47;59.86;101440.30;1733371;80;20974;-46
2021/09/09 01:44:09;;;;;;;4.37;3.15;;;;;;;23.45;59.84;101450.11;1739065;80;21026;-47
2021/09/09 01:46:35;;;;;;;5.58;2.90;;;;;;;23.45;59.85;101450.92;1743429;80;21096;-45
2021/09/09 01:49:03;;;;;;;5.03;3.20;;;;;;;23.46;59.88;101451.18;1743798;80;21084;-50
2021/09/09 01:51:29;;;;;;;5.47;2.75;;;;;;;23.46;60.00;101448.41;1745435;80;21238;-50
2021/09/09 01:53:59;;;;;;;5.45;3.35;;;;;;;23.48;60.06;101439.16;1742941;80;21140;-49
2021/09/09 01:56:25;;;;;;;6.08;3.22;;;;;;;23.50;60.11;101449.97;1743135;80;21539;-46
2021/09/09 01:58:53;;;;;;;5.33;3.30;;;;;;;23.51;60.08;101446.02;1747433;80;21068;-46
2021/09/09 02:01:22;;;;;;;4.80;3.10;;;;;;;23.51;60.01;101444.06;1744371;80;21081;-47
2021/09/09 02:03:48;;;;;;;5.05;3.12;;;;;;;23.52;59.94;101440.72;1743796;80;22610;-48
2021/09/09 02:06:18;;;;;;;4.55;3.42;;;;;;;23.52;59.87;101446.28;1737987;81;21492;-45
2021/09/09 02:08:44;;;;;;;4.47;3.17;;;;;;;23.51;59.80;101446.02;1745679;80;21119;-46
2021/09/09 02:11:11;;;;;;;5.30;3.87;;;;;;;23.50;59.74;101443.02;1750466;80;21076;-46
2021/09/09 02:13:38;;;;;;;6.05;3.70;;;;;;;23.47;59.70;101441.69;1746041;80;21124;-47
2021/09/09 02:16:05;;;;;;;5.75;3.25;;;;;;;23.45;59.66;101443.98;1749605;80;21430;-46
2021/09/09 02:18:31;;;;;;;5.72;3.50;;;;;;;23.43;59.63;101446.25;1742130;80;21094;-45
2021/09/09 02:20:57;;;;;;;6.12;3.72;;;;;;;23.41;59.62;101451.29;1745228;80;21068;-46
2021/09/09 02:23:23;;;;;;;4.30;2.90;;;;;;;23.38;59.60;101450.52;1744163;80;21928;-48
2021/09/09 02:25:50;;;;;;;5.67;3.58;;;;;;;23.36;59.60;101448.66;1742267;80;21112;-46
2021/09/09 02:28:16;;;;;;;5.47;3.30;;;;;;;23.33;59.60;101442.36;1752724;80;21512;-47
2021/09/09 02:30:42;;;;;;;4.37;3.20;;;;;;;23.34;59.60;101439.81;1746707;80;21623;-50
2021/09/09 02:33:09;;;;;;;5.15;2.80;;;;;;;23.36;59.66;101443.66;1748649;80;21053;-47
2021/09/09 02:35:35;;;;;;;4.85;2.83;;;;;;;23.38;59.77;101446.36;1748704;80;21049;-48
2021/09/09 02:38:01;;;;;;;3.98;2.80;;;;;;;23.38;59.84;101444.17;1745352;80;21026;-47
2021/09/09 02:40:27;;;;;;;4.50;3.10;;;;;;;23.39;59.86;101444.40;1746994;80;22034;-50
2021/09/09 02:42:53;;;;;;;5.20;3.33;;;;;;;23.40;59.84;101449.64;1746951;80;21024;-49
2021/09/09 02:45:19;;;;;;;4.10;3.10;;;;;;;23.41;59.78;101452.67;1750820;80;20942;-49
2021/09/09 02:47:45;;;;;;;3.92;2.92;;;;;;;23.41;59.74;101447.13;1755528;80;21116;-49
2021/09/09 02:50:12;;;;;;;3.40;2.92;;;;;;;23.42;59.63;101459.05;1757073;80;21092;-48
2021/09/09 02:52:39;;;;;;;5.60;3.20;;;;;;;23.41;59.57;101461.58;1751473;80;21136;-49
2021/09/09 02:55:07;;;;;;;5.10;3.27;;;;;;;23.40;59.51;101458.55;1758838;80;21511;-47
2021/09/09 02:57:33;;;;;;;3.85;2.75;;;;;;;23.38;59.46;101457.46;1759096;80;21086;-46
2021/09/09 02:59:59;;;;;;;4.00;3.00;;;;;;;23.37;59.44;101462.80;1758946;80;21533;-45
2021/09/09 03:02:26;;;;;;;5.70;3.05;;;;;;;23.34;59.40;101459.24;1701087;82;21126;-46
2021/09/09 03:04:53;;;;;;;4.10;3.00;;;;;;;23.32;59.36;101460.16;1712660;82;21187;-49
2021/09/09 03:07:19;;;;;;;3.35;2.65;;;;;;;23.29;59.36;101460.80;1753724;80;21041;-46
2021/09/09 03:09:45;;;;;;;4.67;3.35;;;;;;;23.27;59.34;101467.23;1758040;80;21040;-49
2021/09/09 03:12:11;;;;;;;3.80;2.72;;;;;;;23.25;59.36;101466.75;1755244;80;21041;-48
2021/09/09 03:14:37;;;;;;;4.85;3.20;;;;;;;23.21;59.34;101464.36;1759408;80;21096;-46
2021/09/09 03:17:04;;;;;;;5.17;2.60;;;;;;;23.20;59.32;101469.66;1758827;80;21339;-45
2021/09/09 03:19:31;;;;;;;3.58;2.65;;;;;;;23.20;59.32;101470.48;1762107;80;21077;-48
2021/09/09 03:21:58;;;;;;;3.10;2.30;;;;;;;23.21;59.37;101469.31;1760243;80;21080;-48
2021/09/09 03:24:24;;;;;;;4.05;2.25;;;;;;;23.23;59.46;101472.61;1702353;82;21087;-48
2021/09/09 03:26:50;;;;;;;3.77;2.87;;;;;;;23.24;59.54;101467.87;1758135;80;21475;-50
2021/09/09 03:29:17;;;;;;;4.15;3.25;;;;;;;23.26;59.58;101475.30;1756868;80;21225;-46
2021/09/09 03:31:44;;;;;;;4.25;2.70;;;;;;;23.27;59.54;101474.73;1758220;80;21171;-51
2021/09/09 03:34:10;;;;;;;4.20;2.90;;;;;;;23.29;59.50;101480.80;1759462;80;21017;-46
2021/09/09 03:36:36;;;;;;;4.45;2.70;;;;;;;23.29;59.43;101486.36;1722597;82;21368;-48
2021/09/09 03:39:02;;;;;;;3.60;2.55;;;;;;;23.28;59.36;101482.75;1757722;80;21073;-46
2021/09/09 03:41:28;;;;;;;4.97;2.87;;;;;;;23.29;59.30;101486.36;1761917;80;21837;-50
2021/09/09 03:43:55;;;;;;;3.20;2.27;;;;;;;23.27;59.23;101482.50;1754182;80;21062;-47
2021/09/09 03:46:20;;;;;;;3.77;2.90;;;;;;;23.27;59.19;101479.72;1742904;80;21607;-46
2021/09/09 03:48:47;;;;;;;4.87;2.60;;;;;;;23.25;59.13;101482.58;1750265;80;20927;-48
2021/09/09 03:51:13;;;;;;;3.47;2.72;;;;;;;23.22;59.11;101479.85;1744242;80;21081;-47
2021/09/09 03:53:39;;;;;;;4.03;2.65;;;;;;;23.20;59.08;101482.15;1745118;80;22043;-50
2021/09/09 03:56:05;;;;;;;3.72;2.35;;;;;;;23.18;59.08;101488.01;1744454;80;21097;-50
2021/09/09 03:58:32;;;;;;;3.83;2.90;;;;;;;23.16;59.06;101488.09;1747705;80;21707;-47
2021/09/09 04:00:58;;;;;;;4.37;2.85;;;;;;;23.14;59.05;101491.73;1745948;80;20962;-45
2021/09/09 04:03:24;;;;;;;4.20;2.58;;;;;;;23.12;59.07;101490.69;1749830;80;21063;-45
2021/09/09 04:05:50;;;;;;;4.53;2.80;;;;;;;23.10;59.03;101496.28;1744838;80;21562;-46
2021/09/09 04:08:16;;;;;;;7.97;2.60;;;;;;;23.08;59.05;101504.95;1748133;80;20995;-46
2021/09/09 04:10:42;;;;;;;3.87;2.27;;;;;;;23.10;59.09;101504.05;1752520;80;20996;-45
2021/09/09 04:13:08;;;;;;;3.22;2.60;;;;;;;23.12;59.14;101510.68;1747949;80;21290;-46
2021/09/09 04:15:35;;;;;;;3.62;2.35;;;;;;;23.15;59.22;101504.48;1747440;80;20984;-50
2021/09/09 04:18:01;;;;;;;6.40;2.75;;;;;;;23.16;59.31;101503.36;1746771;80;21515;-51
2021/09/09 04:20:27;;;;;;;4.10;2.45;;;;;;;23.17;59.33;101507.75;1745140;80;21127;-48
2021/09/09 04:22:53;;;;;;;3.92;2.60;;;;;;;23.19;59.30;101503.53;1749148;80;21059;-46
2021/09/09 04:25:20;;;;;;;3.42;2.65;;;;;;;23.20;59.25;101507.95;1751294;80;21077;-49
2021/09/09 04:27:46;;;;;;;5.87;2.75;;;;;;;23.22;59.18;101504.84;1749856;80;21098;-46
2021/09/09 04:30:13;;;;;;;4.40;2.70;;;;;;;23.22;59.13;101509.00;1751111;80;21955;-48
2021/09/09 04:32:39;;;;;;;3.15;2.67;;;;;;;23.22;59.06;101502.89;1745842;80;21131;-46
2021/09/09 04:35:07;;;;;;;8.33;3.90;;;;;;;23.21;59.01;101497.67;1749987;80;21032;-48
2021/09/09 04:37:36;;;;;;;4.55;3.00;;;;;;;23.21;58.97;101503.23;1755082;80;21017;-45
2021/09/09 04:40:04;;;;;;;3.20;2.35;;;;;;;23.19;58.92;101493.81;1751524;80;20989;-47
2021/09/09 04:42:30;;;;;;;4.47;2.58;;;;;;;23.17;58.91;101489.14;1749204;80;21153;-45
2021/09/09 04:44:56;;;;;;;5.87;2.67;;;;;;;23.16;58.89;101494.46;1739911;80;21111;-45
2021/09/09 04:47:22;;;;;;;2.83;2.42;;;;;;;23.15;58.88;101505.88;1733942;80;21004;-45
2021/09/09 04:49:48;;;;;;;6.08;2.60;;;;;;;23.13;58.87;101496.47;1730025;80;21491;-48
2021/09/09 04:52:14;;;;;;;4.17;2.55;;;;;;;23.11;58.87;101504.31;1734301;82;20925;-48
2021/09/09 04:54:40;;;;;;;6.12;2.65;;;;;;;23.09;58.89;101505.18;1732046;81;21083;-46
2021/09/09 04:57:07;;;;;;;11.35;3.62;;;;;;;23.08;58.91;101503.56;1734007;80;21654;-51
2021/09/09 04:59:33;;;;;;;6.15;3.35;;;;;;;23.07;58.93;101504.69;1730132;80;21124;-49
2021/09/09 05:01:59;;;;;;;13.22;4.40;;;;;;;23.09;58.95;101503.80;1732880;82;20881;-50
2021/09/09 05:04:25;;;;;;;9.43;3.12;;;;;;;23.11;59.01;101495.16;1728069;80;20926;-50
2021/09/09 05:06:51;;;;;;;5.70;2.33;;;;;;;23.12;59.12;101491.25;1730730;82;23342;-50
2021/09/09 05:09:17;;;;;;;6.67;2.60;;;;;;;23.17;59.21;101495.25;1729881;80;21692;-49
2021/09/09 05:11:43;;;;;;;3.30;2.22;;;;;;;23.17;59.28;101494.69;1729809;80;21061;-51
2021/09/09 05:14:09;;;;;;;58.95;19.92;;;;;;;23.20;59.29;101493.25;1732354;82;21060;-48
2021/09/09 05:16:35;;;;;;;267.27;91.08;;;;;;;23.23;59.24;101495.38;1732499;82;21103;-47
2021/09/09 05:19:01;;;;;;;173.85;56.28;;;;;;;23.26;59.18;101490.57;1729544;80;21273;-49
2021/09/09 05:21:27;;;;;;;117.87;36.53;;;;;;;23.27;59.10;101493.61;1737110;82;20909;-49
2021/09/09 05:23:54;;;;;;;62.78;19.05;;;;;;;23.27;59.03;101487.23;1736915;80;21502;-49
2021/09/09 05:26:20;;;;;;;35.58;11.10;;;;;;;23.27;58.93;101490.00;1733044;80;20977;-50
2021/09/09 05:28:46;;;;;;;27.35;8.15;;;;;;;23.26;58.86;101489.75;1733714;80;21716;-47
2021/09/09 05:31:12;;;;;;;21.20;5.72;;;;;;;23.25;58.81;101483.97;1735784;81;21922;-48
2021/09/09 05:33:38;;;;;;;18.60;5.35;;;;;;;23.22;58.78;101484.84;1736057;82;21427;-46
2021/09/09 05:36:04;;;;;;;19.85;5.83;;;;;;;23.21;58.74;101485.19;1737647;82;20989;-47
2021/09/09 05:38:30;;;;;;;16.87;4.70;;;;;;;23.19;58.74;101484.67;1736680;80;21096;-51
2021/09/09 05:40:56;;;;;;;17.85;4.92;;;;;;;23.16;58.70;101472.82;1732975;82;21018;-47
2021/09/09 05:43:23;;;;;;;13.25;4.47;;;;;;;23.14;58.68;101473.13;1735131;80;22131;-49
2021/09/09 05:45:49;;;;;;;12.07;4.35;;;;;;;23.13;58.68;101480.38;1705954;80;21071;-51
2021/09/09 05:48:15;;;;;;;14.15;4.62;;;;;;;23.10;58.68;101477.68;1705581;82;20922;-50
2021/09/09 05:50:41;;;;;;;15.93;4.92;;;;;;;23.08;58.66;101478.58;1705748;82;20914;-51
2021/09/09 05:53:07;;;;;;;16.82;5.05;;;;;;;23.07;58.67;101469.17;1702831;82;20990;-48
2021/09/09 05:55:33;;;;;;;14.95;4.70;;;;;;;23.04;58.68;101467.84;1707437;82;21326;-49
2021/09/09 05:57:59;;;;;;;13.88;4.20;;;;;;;23.03;58.68;101467.61;1692664;83;21089;-50
2021/09/09 06:00:25;;;;;;;12.82;4.40;;;;;;;23.01;58.69;101465.70;1685821;83;21572;-50
2021/09/09 06:02:52;;;;;;;12.25;4.15;;;;;;;23.00;58.69;101460.50;1687179;83;21092;-49
2021/09/09 06:05:19;;;;;;;12.73;3.87;;;;;;;23.00;58.69;101461.29;1694847;83;21439;-46
2021/09/09 06:07:45;;;;;;;11.55;4.28;;;;;;;23.03;58.76;101458.46;1685224;83;21247;-48
2021/09/09 06:10:12;;;;;;;12.28;4.03;;;;;;;23.06;58.87;101461.98;1689604;83;21076;-49
2021/09/09 06:12:38;;;;;;;11.33;3.80;;;;;;;23.06;58.95;101462.80;1675697;83;21087;-47
2021/09/09 06:15:06;;;;;;;11.38;4.08;;;;;;;23.08;58.98;101461.93;1701999;82;21633;-46
2021/09/09 06:17:32;;;;;;;10.90;4.28;;;;;;;23.10;58.95;101466.58;1695403;82;21081;-46
2021/09/09 06:19:59;;;;;;;15.95;4.78;;;;;;;23.12;58.88;101458.77;1695929;82;21487;-47
2021/09/09 06:22:25;;;;;;;13.72;4.25;;;;;;;23.14;58.80;101459.81;1701319;82;21127;-46
2021/09/09 06:24:51;;;;;;;10.93;4.90;;;;;;;23.14;58.72;101467.58;1694253;82;20926;-46
2021/09/09 06:27:17;;;;;;;12.58;3.98;;;;;;;23.14;58.66;101459.81;1704255;82;20962;-48
2021/09/09 06:29:43;;;;;;;15.13;4.65;;;;;;;23.13;58.58;101458.98;1709312;82;21071;-50
2021/09/09 06:32:09;;;;;;;8.33;3.77;;;;;;;23.13;58.53;101459.56;1698254;82;21114;-50
2021/09/09 06:34:35;;;;;;;10.45;3.98;;;;;;;23.11;58.47;101464.06;1697533;82;20887;-46
2021/09/09 06:37:01;;;;;;;10.95;4.22;;;;;;;23.10;58.42;101460.20;1704707;82;21642;-46
2021/09/09 06:39:27;;;;;;;9.53;3.98;;;;;;;23.06;58.38;101458.64;1694420;82;21177;-50
2021/09/09 06:41:53;;;;;;;13.95;4.20;;;;;;;23.07;58.36;101462.23;1699347;82;21023;-51
2021/09/09 06:44:20;;;;;;;10.08;3.77;;;;;;;23.05;58.33;101453.39;1695969;82;21457;-49
2021/09/09 06:46:46;;;;;;;9.40;3.52;;;;;;;23.03;58.32;101450.14;1716714;82;21011;-47
2021/09/09 06:49:12;;;;;;;11.63;4.50;;;;;;;23.01;58.31;101449.63;1715123;81;20910;-50
2021/09/09 06:51:39;;;;;;;10.45;4.00;;;;;;;22.99;58.29;101453.30;1713485;81;21213;-49
2021/09/09 06:54:05;;;;;;;10.00;4.08;;;;;;;22.97;58.29;101453.61;1715527;82;20987;-45
2021/09/09 06:56:31;;;;;;;9.10;3.30;;;;;;;22.95;58.27;101454.52;1719229;82;21989;-50
2021/09/09 06:58:57;;;;;;;7.92;3.60;;;;;;;22.93;58.28;101458.72;1718327;81;20981;-49
2021/09/09 07:01:23;;;;;;;9.25;3.83;;;;;;;22.92;58.27;101455.69;1715257;82;21002;-49
2021/09/09 07:03:49;;;;;;;8.18;3.30;;;;;;;22.90;58.28;101453.25;1716190;82;20915;-47
2021/09/09 07:06:16;;;;;;;10.35;3.77;;;;;;;22.89;58.27;101452.17;1714637;81;21045;-47
2021/09/09 07:08:42;;;;;;;7.70;3.70;;;;;;;22.87;58.29;101453.89;1719668;81;22017;-47
2021/09/09 07:11:08;;;;;;;8.08;3.62;;;;;;;22.87;58.27;101464.17;1716032;82;21053;-49
2021/09/09 07:13:35;;;;;;;10.85;4.00;;;;;;;22.85;58.28;101452.55;1714480;82;21445;-47
2021/09/09 07:16:01;;;;;;;10.05;3.15;;;;;;;22.88;58.26;101457.46;1716808;81;21101;-48
2021/09/09 07:18:28;;;;;;;7.53;3.30;;;;;;;22.90;58.31;101456.59;1643028;85;21429;-46
2021/09/09 07:20:54;;;;;;;7.65;3.10;;;;;;;22.92;58.44;101455.69;1717623;82;21181;-45
2021/09/09 07:23:20;;;;;;;9.30;3.67;;;;;;;22.94;58.50;101455.64;1716275;81;21840;-46
2021/09/09 07:25:47;;;;;;;8.03;3.37;;;;;;;22.98;58.51;101458.59;1716804;82;21046;-49
2021/09/09 07:28:13;;;;;;;8.40;3.20;;;;;;;23.00;58.46;101459.11;1718635;81;21031;-50
2021/09/09 07:30:39;;;;;;;7.97;3.58;;;;;;;23.01;58.42;101453.22;1716374;82;21450;-47
2021/09/09 07:33:06;;;;;;;8.30;3.02;;;;;;;23.03;58.31;101454.30;1715641;82;23251;-46
2021/09/09 07:35:32;;;;;;;7.92;3.12;;;;;;;23.05;58.23;101446.45;1722062;82;21001;-47
2021/09/09 07:37:58;;;;;;;7.58;3.22;;;;;;;23.04;58.17;101449.80;1714706;82;21023;-47
2021/09/09 07:40:24;;;;;;;8.78;3.00;;;;;;;23.04;58.07;101450.39;1715852;81;21134;-47
2021/09/09 07:42:50;;;;;;;7.80;3.15;;;;;;;23.05;58.00;101446.45;1719039;82;21056;-50
2021/09/09 07:45:17;;;;;;;8.75;3.50;;;;;;;23.03;57.93;101452.91;1730139;80;21376;-46
2021/09/09 07:47:43;;;;;;;9.28;3.25;;;;;;;23.02;57.91;101453.48;1755012;80;20985;-48
2021/09/09 07:50:10;;;;;;;7.35;3.22;;;;;;;23.01;57.86;101453.78;1759947;80;21590;-47
2021/09/09 07:52:40;;;;;;;5.42;3.05;;;;;;;23.00;57.83;101453.56;1752511;80;20982;-48
2021/09/09 07:55:08;;;;;;;7.05;3.25;;;;;;;22.98;57.80;101445.54;1752680;80;21047;-49
2021/09/09 07:57:34;;;;;;;6.28;2.95;;;;;;;22.97;57.77;101454.17;1752444;80;21097;-50
2021/09/09 08:00:00;;;;;;;5.80;3.00;;;;;;;22.95;57.76;101445.36;1749764;80;21056;-49
2021/09/09 08:02:26;;;;;;;6.97;3.20;;;;;;;22.93;57.72;101444.28;1751681;80;21091;-47
2021/09/09 08:04:52;;;;;;;6.90;2.85;;;;;;;22.91;57.71;101441.02;1757553;80;20974;-47
2021/09/09 08:07:18;;;;;;;8.75;3.15;;;;;;;22.91;57.71;101441.02;1754861;80;21578;-49
2021/09/09 08:09:44;;;;;;;7.05;3.47;;;;;;;22.89;57.70;101436.91;1746295;80;21082;-47
2021/09/09 08:12:11;;;;;;;6.28;2.92;;;;;;;22.89;57.69;101436.34;1750525;80;37358;-46
2021/09/09 08:14:37;;;;;;;6.47;3.12;;;;;;;22.86;57.69;101427.28;1749416;80;20942;-47
2021/09/09 08:17:04;;;;;;;5.72;3.08;;;;;;;22.85;57.67;101438.12;1748852;80;21045;-51
2021/09/09 08:19:30;;;;;;;7.00;2.72;;;;;;;22.85;57.67;101439.50;1754446;80;21509;-48
2021/09/09 08:21:56;;;;;;;5.62;3.05;;;;;;;22.84;57.67;101429.53;1751524;80;21052;-47
2021/09/09 08:24:22;;;;;;;5.58;3.00;;;;;;;22.82;57.65;101430.44;1748204;80;20950;-47
2021/09/09 08:26:48;;;;;;;4.80;2.40;;;;;;;22.82;57.66;101427.66;1754017;80;21025;-50
2021/09/09 08:29:14;;;;;;;6.50;2.47;;;;;;;22.81;57.66;101430.75;1756222;80;20860;-47
2021/09/09 08:31:40;;;;;;;6.58;3.25;;;;;;;22.81;57.64;101426.59;1754044;80;21646;-49
2021/09/09 08:34:06;;;;;;;6.28;2.83;;;;;;;22.79;57.64;101421.34;1755985;80;21867;-49
2021/09/09 08:36:32;;;;;;;5.75;2.75;;;;;;;22.79;57.62;101417.18;1754728;80;20991;-47
2021/09/09 08:38:58;;;;;;;7.65;2.80;;;;;;;22.78;57.64;101422.50;1755174;80;21571;-50
2021/09/09 08:41:24;;;;;;;8.60;3.00;;;;;;;22.78;57.64;101410.02;1750939;80;21017;-47
2021/09/09 08:43:51;;;;;;;5.28;2.45;;;;;;;22.77;57.64;101401.44;1756939;80;21815;-47
2021/09/09 08:46:17;;;;;;;7.55;2.85;;;;;;;22.77;57.63;101404.21;1747665;80;21155;-47
2021/09/09 08:48:44;;;;;;;5.95;2.90;;;;;;;22.77;57.62;101402.83;1743631;81;21419;-48
2021/09/09 08:51:12;;;;;;;3.98;2.42;;;;;;;22.76;57.62;101392.86;1747755;80;21003;-45
2021/09/09 08:53:40;;;;;;;6.40;2.67;;;;;;;22.75;57.62;101390.65;1744883;81;20914;-51
2021/09/09 08:56:06;;;;;;;5.15;3.02;;;;;;;22.75;57.62;101392.03;1743202;81;21028;-47
2021/09/09 08:58:34;;;;;;;4.17;2.45;;;;;;;22.75;57.61;101392.59;1744347;81;21882;-51
2021/09/09 09:01:12;;;;;;;6.03;2.72;;;;;;;22.75;57.60;101390.65;1743108;80;21655;-47
2021/09/09 09:03:50;;;;;;;6.87;2.92;;;;;;;22.74;57.60;101391.78;1750994;80;21030;-50
2021/09/09 09:06:29;;;;;;;5.17;2.60;;;;;;;22.74;57.60;101392.38;1745154;80;21069;-47
2021/09/09 09:09:01;;;;;;;6.05;2.22;;;;;;;22.76;57.56;101383.15;1746958;80;21489;-49
2021/09/09 09:11:33;;;;;;;5.40;2.40;;;;;;;22.80;57.64;101380.55;1743307;80;21080;-48
2021/09/09 09:13:59;;;;;;;3.20;1.85;;;;;;;22.84;57.73;101377.39;1743768;80;21486;-49
2021/09/09 09:16:26;;;;;;;4.37;2.20;;;;;;;22.86;57.81;101377.90;1743893;80;20993;-50
2021/09/09 09:18:52;;;;;;;4.47;2.30;;;;;;;22.89;57.81;101367.55;1742372;80;21562;-46
2021/09/09 09:21:19;;;;;;;4.50;2.42;;;;;;;22.92;57.78;101366.89;1742280;80;21058;-49
2021/09/09 09:23:51;;;;;;;4.03;2.70;;;;;;;22.95;57.69;101360.16;1742835;80;21567;-47
2021/09/09 09:26:18;;;;;;;6.08;2.50;;;;;;;22.98;57.60;101366.45;1741945;81;21463;-48
2021/09/09 09:28:51;;;;;;;4.75;2.35;;;;;;;22.99;57.50;101358.38;1741325;80;21020;-48
2021/09/09 09:31:29;;;;;;;5.33;2.72;;;;;;;23.00;57.40;101361.98;1700745;83;21057;-51
2021/09/09 09:33:58;;;;;;;6.20;2.65;;;;;;;23.01;57.33;101354.70;1745537;80;21077;-49
2021/09/09 09:36:28;;;;;;;5.08;2.17;;;;;;;23.01;57.26;101355.27;1744068;81;21585;-47
2021/09/09 09:38:58;;;;;;;3.72;2.10;;;;;;;23.00;57.21;101355.05;1739795;80;21014;-47
2021/09/09 09:41:25;;;;;;;3.95;2.37;;;;;;;22.98;57.15;101348.41;1745013;80;21049;-52
2021/09/09 09:43:56;;;;;;;5.05;2.33;;;;;;;22.99;57.12;101338.95;1744146;80;21569;-47
2021/09/09 09:46:30;;;;;;;4.70;2.08;;;;;;;22.98;57.11;101339.27;1741460;81;21039;-46
2021/09/09 09:49:17;;;;;;;4.20;2.20;;;;;;;22.97;57.05;101339.01;1749488;80;21575;-49
2021/09/09 09:51:45;;;;;;;3.65;2.47;;;;;;;22.96;57.03;101335.41;1747331;81;21122;-47
2021/09/09 09:54:13;;;;;;;4.40;2.10;;;;;;;22.95;57.02;101334.37;1745853;80;20961;-50
2021/09/09 09:56:41;;;;;;;4.42;2.15;;;;;;;22.94;57.01;101339.09;1742412;80;21088;-48
2021/09/09 09:59:07;;;;;;;5.45;2.45;;;;;;;22.93;56.99;101322.19;1741892;80;21042;-49
2021/09/09 10:01:33;;;;;;;5.08;2.40;;;;;;;22.94;56.97;101325.78;1745191;81;22113;-48
2021/09/09 10:04:08;;;;;;;5.87;2.30;;;;;;;22.92;56.98;101323.89;1743109;80;21088;-46
2021/09/09 10:06:34;;;;;;;5.42;2.37;;;;;;;22.91;56.98;101321.70;1748148;80;21595;-47
2021/09/09 10:09:02;;;;;;;3.58;2.35;;;;;;;22.92;56.97;101314.17;1747315;80;21030;-52
2021/09/09 10:11:29;;;;;;;5.95;2.27;;;;;;;22.91;56.96;101320.32;1746690;80;21098;-50
2021/09/09 10:13:56;;;;;;;4.28;2.17;;;;;;;22.92;56.96;101312.78;1745249;80;21234;-47
2021/09/09 10:16:23;;;;;;;6.45;2.30;;;;;;;22.91;56.96;101302.28;1745661;81;21046;-47
2021/09/09 10:18:50;;;;;;;4.70;2.37;;;;;;;22.92;56.95;101311.40;1743783;80;20995;-49
2021/09/09 10:21:40;;;;;;;4.30;2.47;;;;;;;22.92;56.95;101310.02;1745276;80;21081;-50
2021/09/09 10:24:14;;;;;;;5.03;2.40;;;;;;;22.92;56.95;101305.84;1741613;80;21453;-46
2021/09/09 10:26:40;;;;;;;4.42;2.65;;;;;;;22.92;56.92;101307.23;1742322;80;21523;-47
2021/09/09 10:29:09;;;;;;;5.45;2.15;;;;;;;22.94;56.92;101309.14;1740989;80;20999;-50
2021/09/09 10:31:43;;;;;;;4.22;2.27;;;;;;;22.93;56.93;101301.37;1746960;80;21095;-50
2021/09/09 10:34:22;;;;;;;4.45;1.92;;;;;;;22.93;56.90;101298.61;1747854;80;21046;-47
2021/09/09 10:36:48;;;;;;;3.58;2.10;;;;;;;22.95;56.92;101294.95;1721712;80;21123;-48
2021/09/09 10:39:38;;;;;;;5.03;2.10;;;;;;;22.96;56.89;101297.13;1744013;81;21263;-45
2021/09/09 10:42:37;;;;;;;4.17;1.95;;;;;;;22.97;56.87;101287.67;1735163;80;21118;-47
2021/09/09 10:45:05;;;;;;;4.40;2.37;;;;;;;22.97;56.86;101286.28;1741138;80;21456;-49
2021/09/09 10:47:31;;;;;;;3.05;1.98;;;;;;;22.98;56.84;101286.55;1745722;80;21073;-47
2021/09/09 10:50:03;;;;;;;4.22;2.00;;;;;;;22.99;56.81;101288.19;1758747;80;20863;-50
2021/09/09 10:52:29;;;;;;;2.37;1.85;;;;;;;23.01;56.80;101280.34;1753091;80;21097;-46
2021/09/09 10:55:11;;;;;;;4.62;2.12;;;;;;;23.01;56.79;101275.61;1748906;80;21650;-48
2021/09/09 10:57:38;;;;;;;4.00;2.00;;;;;;;23.03;56.77;101275.30;1747391;80;20985;-50
2021/09/09 11:00:06;;;;;;;2.90;1.80;;;;;;;23.04;56.74;101269.41;1749992;80;21069;-45
2021/09/09 11:02:33;;;;;;;4.22;1.87;;;;;;;23.05;56.73;101254.39;1744981;80;21070;-47
2021/09/09 11:05:04;;;;;;;2.80;1.77;;;;;;;23.07;56.71;101250.74;1751140;80;20958;-48
2021/09/09 11:07:31;;;;;;;2.52;2.08;;;;;;;23.09;56.69;101244.84;1745165;80;20948;-52
2021/09/09 11:10:07;;;;;;;4.25;2.20;;;;;;;23.11;56.65;101251.73;1742117;80;21060;-46
2021/09/09 11:12:39;;;;;;;2.83;1.57;;;;;;;23.13;56.65;101254.98;1754892;80;21086;-45
2021/09/09 11:15:09;;;;;;;3.12;1.80;;;;;;;23.14;56.62;101246.91;1745878;80;21065;-47
2021/09/09 11:17:36;;;;;;;3.85;2.02;;;;;;;23.16;56.62;101249.37;1746459;80;21492;-48
2021/09/09 11:20:11;;;;;;;3.45;2.02;;;;;;;23.18;56.59;101244.30;1748857;80;21078;-52
2021/09/09 11:22:38;;;;;;;4.28;2.05;;;;;;;23.20;56.58;101244.80;1748177;80;21541;-49
2021/09/09 11:25:06;;;;;;;4.25;2.20;;;;;;;23.21;56.60;101244.45;1745909;80;21075;-52